Time;durP1;ratioP1;P1;durP2;ratioP2;P2;SDS_P1;SDS_P2;PMS_P1;PMS_P2;Temp;Humidity;BMP_temperature;BMP_pressure;BME280_temperature;BME280_humidity;BME280_pressure;Samples;Min_cycle;Max_cycle;Signal;HPM_P1;HPM_P2
2022/03/09 00:02:20;;;;;;;;;;;8.90;84.80;;;;;;5091079;28;19920;-74
2022/03/09 00:04:46;;;;;;;;;;;8.90;84.90;;;;;;5091197;28;19931;-74
2022/03/09 00:07:11;;;;;;;;;;;8.90;84.90;;;;;;5090775;28;19923;-74
2022/03/09 00:09:37;;;;;;;;;;;8.90;84.80;;;;;;5090947;28;19935;-74
2022/03/09 00:12:03;;;;;;;;;;;8.90;84.70;;;;;;5090970;28;19916;-74
2022/03/09 00:14:29;;;;;;;;;;;8.90;84.60;;;;;;5090706;28;19918;-74
2022/03/09 00:16:54;;;;;;;;;;;8.90;84.60;;;;;;5090882;28;20002;-74
2022/03/09 00:19:20;;;;;;;;;;;8.90;84.60;;;;;;5090666;28;20328;-74
2022/03/09 00:21:45;;;;;;;;;;;8.90;84.60;;;;;;5089499;28;20003;-73
2022/03/09 00:24:11;;;;;;;;;;;8.90;84.60;;;;;;5090743;28;19934;-74
2022/03/09 00:26:37;;;;;;;;;;;9.00;84.60;;;;;;5090377;28;20055;-74
2022/03/09 00:29:02;;;;;;;;;;;9.00;84.50;;;;;;5089811;28;20345;-74
2022/03/09 00:31:28;;;;;;;;;;;9.00;84.50;;;;;;5089361;28;20262;-73
2022/03/09 00:33:53;;;;;;;;;;;9.00;84.50;;;;;;5090280;28;19973;-73
2022/03/09 00:36:19;;;;;;;;;;;9.00;84.40;;;;;;5090553;28;19912;-73
2022/03/09 00:38:44;;;;;;;;;;;9.10;84.70;;;;;;5090425;28;19912;-73
2022/03/09 00:41:10;;;;;;;;;;;9.10;84.70;;;;;;5090430;28;19908;-73
2022/03/09 00:43:36;;;;;;;;;;;9.10;84.60;;;;;;5090424;28;19916;-73
2022/03/09 00:46:02;;;;;;;;;;;9.20;84.70;;;;;;5090224;28;20374;-73
2022/03/09 00:48:28;;;;;;;;;;;9.20;84.70;;;;;;5090420;28;19923;-74
2022/03/09 00:50:53;;;;;;;;;;;9.20;84.70;;;;;;5090033;28;20290;-73
2022/03/09 00:53:19;;;;;;;;;;;9.20;84.70;;;;;;5090029;28;19912;-73
2022/03/09 00:55:44;;;;;;;;;;;9.30;84.90;;;;;;5089944;28;19919;-73
2022/03/09 00:58:10;;;;;;;;;;;9.40;84.80;;;;;;5088741;28;19912;-73
2022/03/09 01:00:35;;;;;;;;;;;9.40;84.70;;;;;;5088607;28;19922;-74
2022/03/09 01:03:01;;;;;;;;;;;9.50;84.60;;;;;;5089968;28;20264;-73
2022/03/09 01:05:26;;;;;;;;;;;9.50;84.60;;;;;;5089989;28;20287;-73
2022/03/09 01:07:52;;;;;;;;;;;9.60;84.60;;;;;;5089726;28;20019;-73
2022/03/09 01:10:18;;;;;;;;;;;9.60;84.60;;;;;;5089706;28;19919;-73
2022/03/09 01:12:45;;;;;;;;;;;9.60;84.60;;;;;;5089671;28;19916;-74
2022/03/09 01:15:11;;;;;;;;;;;9.60;84.60;;;;;;5089810;28;19954;-73
2022/03/09 01:17:36;;;;;;;;;;;9.60;84.80;;;;;;5089614;28;19912;-73
2022/03/09 01:20:02;;;;;;;;;;;9.60;84.80;;;;;;5089545;28;19942;-73
2022/03/09 01:22:28;;;;;;;;;;;9.60;84.70;;;;;;5089493;28;20329;-74
2022/03/09 01:24:53;;;;;;;;;;;9.60;84.60;;;;;;5089415;28;19908;-73
2022/03/09 01:27:19;;;;;;;;;;;9.60;84.70;;;;;;5089345;28;19916;-74
2022/03/09 01:29:45;;;;;;;;;;;9.60;84.60;;;;;;5089337;28;19908;-73
2022/03/09 01:32:10;;;;;;;;;;;9.60;84.60;;;;;;5089517;28;19914;-74
2022/03/09 01:34:36;;;;;;;;;;;9.60;84.60;;;;;;5089171;28;19980;-73
2022/03/09 01:37:01;;;;;;;;;;;9.50;84.60;;;;;;5089245;28;20018;-73
2022/03/09 01:39:27;;;;;;;;;;;9.50;84.60;;;;;;5088202;28;20472;-73
2022/03/09 01:41:53;;;;;;;;;;;9.50;84.50;;;;;;5089103;28;19927;-73
2022/03/09 01:44:22;;;;;;;;;;;9.40;84.60;;;;;;5089103;28;19930;-73
2022/03/09 01:46:48;;;;;;;;;;;9.40;84.60;;;;;;5088949;28;19912;-73
2022/03/09 01:49:14;;;;;;;;;;;9.50;84.60;;;;;;5088958;28;19991;-73
2022/03/09 01:51:43;;;;;;;;;;;9.40;84.50;;;;;;5089097;28;20398;-74
2022/03/09 01:54:09;;;;;;;;;;;9.50;84.40;;;;;;5089055;28;19915;-74
2022/03/09 01:56:35;;;;;;;;;;;9.50;84.30;;;;;;5088930;28;20316;-73
2022/03/09 01:59:02;;;;;;;;;;;9.40;84.20;;;;;;5088768;28;19912;-73
2022/03/09 02:01:28;;;;;;;;;;;9.40;84.10;;;;;;5088896;28;19908;-74
2022/03/09 02:03:53;;;;;;;;;;;9.40;84.00;;;;;;5088902;28;19912;-74
2022/03/09 02:06:19;;;;;;;;;;;9.50;83.90;;;;;;5087513;28;19913;-73
2022/03/09 02:11:31;;;;;;;;;;;9.50;83.50;;;;;;5089085;28;20400;-73
2022/03/09 02:13:56;;;;;;;;;;;9.50;83.20;;;;;;5088773;28;20275;-73
2022/03/09 02:16:22;;;;;;;;;;;9.50;83.00;;;;;;5088692;28;19938;-74
2022/03/09 02:18:47;;;;;;;;;;;9.60;82.90;;;;;;5087301;28;19912;-74
2022/03/09 02:21:15;;;;;;;;;;;9.50;82.80;;;;;;5088408;28;19966;-74
2022/03/09 02:23:40;;;;;;;;;;;9.60;83.00;;;;;;5088505;28;19912;-74
2022/03/09 02:26:06;;;;;;;;;;;9.60;83.00;;;;;;5088580;28;20316;-74
2022/03/09 02:28:36;;;;;;;;;;;9.60;83.10;;;;;;5087166;28;19938;-74
2022/03/09 02:31:02;;;;;;;;;;;9.60;83.20;;;;;;5088383;28;20278;-73
2022/03/09 02:33:27;;;;;;;;;;;9.50;83.20;;;;;;5088376;28;19912;-74
2022/03/09 02:35:53;;;;;;;;;;;9.50;83.30;;;;;;5086820;28;20370;-74
2022/03/09 02:38:18;;;;;;;;;;;9.50;83.30;;;;;;5088340;28;20281;-74
2022/03/09 02:40:44;;;;;;;;;;;9.50;83.60;;;;;;5088295;28;20019;-74
2022/03/09 02:43:09;;;;;;;;;;;9.50;83.70;;;;;;5088516;28;19912;-74
2022/03/09 02:45:36;;;;;;;;;;;9.40;83.70;;;;;;5088193;28;19916;-73
2022/03/09 02:48:01;;;;;;;;;;;9.40;83.80;;;;;;5088124;28;20293;-73
2022/03/09 02:50:27;;;;;;;;;;;9.40;84.00;;;;;;5086374;28;19909;-73
2022/03/09 02:52:52;;;;;;;;;;;9.50;84.20;;;;;;5088197;28;20365;-74
2022/03/09 02:55:18;;;;;;;;;;;9.50;84.20;;;;;;5088005;28;20406;-73
2022/03/09 02:57:43;;;;;;;;;;;9.60;84.10;;;;;;5088264;28;19912;-74
2022/03/09 03:00:11;;;;;;;;;;;9.70;84.30;;;;;;5087992;28;19912;-73
2022/03/09 03:02:37;;;;;;;;;;;9.70;84.40;;;;;;5088501;28;19916;-74
2022/03/09 03:05:02;;;;;;;;;;;9.90;84.40;;;;;;5088094;28;20212;-73
2022/03/09 03:07:29;;;;;;;;;;;9.90;84.40;;;;;;5086757;28;19915;-73
2022/03/09 03:09:55;;;;;;;;;;;10.00;84.40;;;;;;5086546;28;19963;-73
2022/03/09 03:12:21;;;;;;;;;;;10.00;84.50;;;;;;5088193;28;19947;-73
2022/03/09 03:14:46;;;;;;;;;;;10.10;84.50;;;;;;5087925;28;19955;-73
2022/03/09 03:17:12;;;;;;;;;;;10.10;84.60;;;;;;5087948;28;19977;-73
2022/03/09 03:19:37;;;;;;;;;;;10.20;84.60;;;;;;5087748;28;19918;-73
2022/03/09 03:22:03;;;;;;;;;;;10.20;84.60;;;;;;5087891;28;19947;-73
2022/03/09 03:24:28;;;;;;;;;;;10.20;84.60;;;;;;5087847;28;19915;-73
2022/03/09 03:26:54;;;;;;;;;;;10.20;84.60;;;;;;5087745;28;20320;-73
2022/03/09 03:29:20;;;;;;;;;;;10.20;84.50;;;;;;5087784;28;20299;-74
2022/03/09 03:31:45;;;;;;;;;;;10.20;84.60;;;;;;5087827;28;19915;-73
2022/03/09 03:34:11;;;;;;;;;;;10.30;84.70;;;;;;5087598;28;19920;-74
2022/03/09 03:36:37;;;;;;;;;;;10.30;84.70;;;;;;5087762;28;20358;-74
2022/03/09 03:39:02;;;;;;;;;;;10.30;84.70;;;;;;5087702;28;20318;-73
2022/03/09 03:41:28;;;;;;;;;;;10.30;84.60;;;;;;5087683;28;19912;-73
2022/03/09 03:43:54;;;;;;;;;;;10.30;84.50;;;;;;5087719;28;19965;-74
2022/03/09 03:46:19;;;;;;;;;;;10.30;84.30;;;;;;5087781;28;19912;-74
2022/03/09 03:48:45;;;;;;;;;;;10.30;84.30;;;;;;5087528;28;19916;-73
2022/03/09 03:51:10;;;;;;;;;;;10.30;84.20;;;;;;5087538;28;19908;-74
2022/03/09 03:53:36;;;;;;;;;;;10.20;84.20;;;;;;5087623;28;19957;-74
2022/03/09 03:56:01;;;;;;;;;;;10.20;84.30;;;;;;5087637;28;19912;-73
2022/03/09 03:58:27;;;;;;;;;;;10.20;84.40;;;;;;5087514;28;20007;-73
2022/03/09 04:00:53;;;;;;;;;;;10.10;84.40;;;;;;5087379;28;19927;-73
2022/03/09 04:03:18;;;;;;;;;;;10.10;84.50;;;;;;5089629;28;19912;-74
2022/03/09 04:05:44;;;;;;;;;;;10.00;84.60;;;;;;5091077;28;20332;-74
2022/03/09 04:08:09;;;;;;;;;;;10.00;84.70;;;;;;5091152;28;20015;-73
2022/03/09 04:10:35;;;;;;;;;;;9.90;84.80;;;;;;5091155;28;19913;-73
2022/03/09 04:13:03;;;;;;;;;;;9.90;84.80;;;;;;5089635;28;19917;-74
2022/03/09 04:15:30;;;;;;;;;;;9.90;84.90;;;;;;5089689;28;20266;-74
2022/03/09 04:17:56;;;;;;;;;;;9.90;84.90;;;;;;5089394;28;19992;-73
2022/03/09 04:20:21;;;;;;;;;;;9.90;84.90;;;;;;5089761;28;20320;-74
2022/03/09 04:22:47;;;;;;;;;;;9.90;85.00;;;;;;5090894;28;19913;-73
2022/03/09 04:25:12;;;;;;;;;;;9.90;84.90;;;;;;5090626;28;19916;-73
2022/03/09 04:27:38;;;;;;;;;;;9.90;84.80;;;;;;5090668;28;19916;-74
2022/03/09 04:30:04;;;;;;;;;;;9.90;84.80;;;;;;5090647;28;19919;-73
2022/03/09 04:32:31;;;;;;;;;;;10.00;84.80;;;;;;5090598;28;19919;-73
2022/03/09 04:34:56;;;;;;;;;;;10.00;84.70;;;;;;5089123;28;19921;-74
2022/03/09 04:37:22;;;;;;;;;;;10.00;84.70;;;;;;5090630;28;19923;-73
2022/03/09 04:39:47;;;;;;;;;;;10.00;84.70;;;;;;5089164;28;19912;-74
2022/03/09 04:42:13;;;;;;;;;;;10.00;84.70;;;;;;5090420;28;20023;-74
2022/03/09 04:44:39;;;;;;;;;;;10.10;84.80;;;;;;5090344;28;19995;-74
2022/03/09 04:47:04;;;;;;;;;;;10.10;84.80;;;;;;5090292;28;20023;-74
2022/03/09 04:49:30;;;;;;;;;;;10.10;84.80;;;;;;5088837;28;19961;-74
2022/03/09 04:51:56;;;;;;;;;;;10.20;85.00;;;;;;5088668;28;20346;-74
2022/03/09 04:54:21;;;;;;;;;;;10.30;85.10;;;;;;5089777;28;19912;-74
2022/03/09 04:56:47;;;;;;;;;;;10.30;85.10;;;;;;5089860;28;20391;-74
2022/03/09 04:59:13;;;;;;;;;;;10.30;85.00;;;;;;5089719;28;19989;-74
2022/03/09 05:01:38;;;;;;;;;;;10.40;85.20;;;;;;5089949;28;19919;-74
2022/03/09 05:04:04;;;;;;;;;;;10.50;85.30;;;;;;5089666;28;19908;-74
2022/03/09 05:06:29;;;;;;;;;;;10.50;85.10;;;;;;5089842;28;19920;-74
2022/03/09 05:08:55;;;;;;;;;;;10.50;85.30;;;;;;5088593;28;20365;-74
2022/03/09 05:11:20;;;;;;;;;;;10.50;85.30;;;;;;5089837;28;19913;-74
2022/03/09 05:13:46;;;;;;;;;;;10.50;85.50;;;;;;5089471;28;20359;-74
2022/03/09 05:16:11;;;;;;;;;;;10.50;85.70;;;;;;5089709;28;19913;-74
2022/03/09 05:18:40;;;;;;;;;;;10.50;85.70;;;;;;5089540;28;19912;-74
2022/03/09 05:21:06;;;;;;;;;;;10.50;85.70;;;;;;5089597;28;19908;-74
2022/03/09 05:23:32;;;;;;;;;;;10.50;85.70;;;;;;5088446;28;20057;-74
2022/03/09 05:25:58;;;;;;;;;;;10.50;85.90;;;;;;5088263;28;20006;-73
2022/03/09 05:28:23;;;;;;;;;;;10.60;85.90;;;;;;5071183;28;19923;-74
2022/03/09 05:30:49;;;;;;;;;;;10.60;86.10;;;;;;5089271;28;19920;-74
2022/03/09 05:33:14;;;;;;;;;;;10.70;86.20;;;;;;5089290;28;19934;-74
2022/03/09 05:35:40;;;;;;;;;;;10.70;86.10;;;;;;5087870;28;19934;-74
2022/03/09 05:38:05;;;;;;;;;;;10.80;86.20;;;;;;5089354;28;19926;-74
2022/03/09 05:40:31;;;;;;;;;;;10.80;86.10;;;;;;5089292;28;19916;-74
2022/03/09 05:42:57;;;;;;;;;;;10.80;86.20;;;;;;5088083;28;20010;-74
2022/03/09 05:45:22;;;;;;;;;;;10.90;86.30;;;;;;5089058;28;20015;-74
2022/03/09 05:47:48;;;;;;;;;;;10.90;86.30;;;;;;5087758;28;19916;-74
2022/03/09 05:50:14;;;;;;;;;;;10.90;86.30;;;;;;5088929;28;19998;-74
2022/03/09 05:52:39;;;;;;;;;;;10.90;86.30;;;;;;5088987;28;19961;-74
2022/03/09 05:55:05;;;;;;;;;;;10.90;86.30;;;;;;5088957;28;20381;-74
2022/03/09 05:57:31;;;;;;;;;;;11.00;86.50;;;;;;5088833;28;19915;-74
2022/03/09 05:59:57;;;;;;;;;;;11.00;86.50;;;;;;5088873;28;20285;-74
2022/03/09 06:02:22;;;;;;;;;;;11.00;86.60;;;;;;5088803;28;19916;-74
2022/03/09 06:04:48;;;;;;;;;;;11.00;86.70;;;;;;5088907;28;20289;-74
2022/03/09 06:07:14;;;;;;;;;;;11.00;86.70;;;;;;5089025;28;20270;-75
2022/03/09 06:09:39;;;;;;;;;;;11.00;86.80;;;;;;5088692;28;20427;-74
2022/03/09 06:12:05;;;;;;;;;;;10.90;86.90;;;;;;5089316;28;19951;-75
2022/03/09 06:14:30;;;;;;;;;;;10.90;87.00;;;;;;5088761;28;19916;-75
2022/03/09 06:16:56;;;;;;;;;;;10.90;86.90;;;;;;5088519;28;20205;-74
2022/03/09 06:19:21;;;;;;;;;;;10.90;86.90;;;;;;5088792;28;19986;-74
2022/03/09 06:21:47;;;;;;;;;;;10.80;87.00;;;;;;5088485;28;20263;-74
2022/03/09 06:24:16;;;;;;;;;;;10.80;86.90;;;;;;5087218;28;19920;-74
2022/03/09 06:26:42;;;;;;;;;;;10.80;87.10;;;;;;5087663;28;19919;-74
2022/03/09 06:29:08;;;;;;;;;;;10.80;87.60;;;;;;5088304;28;19920;-74
2022/03/09 06:31:34;;;;;;;;;;;10.80;87.30;;;;;;5088080;28;19992;-74
2022/03/09 06:34:00;;;;;;;;;;;10.90;87.40;;;;;;5086890;28;19932;-74
2022/03/09 06:36:25;;;;;;;;;;;10.90;87.50;;;;;;5086936;28;19998;-74
2022/03/09 06:38:52;;;;;;;;;;;11.00;87.70;;;;;;5088778;28;19912;-74
2022/03/09 06:41:17;;;;;;;;;;;11.00;87.80;;;;;;5088267;28;19928;-74
2022/03/09 06:43:43;;;;;;;;;;;11.00;87.60;;;;;;5088530;28;19938;-74
2022/03/09 06:46:09;;;;;;;;;;;11.00;87.90;;;;;;5088079;28;20006;-74
2022/03/09 06:48:34;;;;;;;;;;;11.00;87.90;;;;;;5088009;28;20002;-75
2022/03/09 06:51:00;;;;;;;;;;;11.00;88.00;;;;;;5088043;28;19912;-74
2022/03/09 06:53:25;;;;;;;;;;;11.00;88.10;;;;;;5087880;28;19914;-74
2022/03/09 06:55:51;;;;;;;;;;;10.90;88.10;;;;;;5088329;28;20270;-74
2022/03/09 06:58:17;;;;;;;;;;;10.90;88.20;;;;;;5087705;28;19916;-74
2022/03/09 07:00:42;;;;;;;;;;;10.80;88.50;;;;;;5087714;28;19923;-74
2022/03/09 07:03:08;;;;;;;;;;;10.80;88.60;;;;;;5086567;28;19980;-74
2022/03/09 07:05:34;;;;;;;;;;;10.80;88.50;;;;;;5087791;28;19912;-66
2022/03/09 07:08:00;;;;;;;;;;;10.80;88.80;;;;;;5087904;28;20010;-74
2022/03/09 07:10:26;;;;;;;;;;;10.80;89.00;;;;;;5087661;28;20105;-74
2022/03/09 07:12:51;;;;;;;;;;;10.80;89.10;;;;;;5087750;28;20003;-74
2022/03/09 07:15:17;;;;;;;;;;;10.90;89.00;;;;;;5087752;28;19920;-74
2022/03/09 07:17:44;;;;;;;;;;;10.90;89.00;;;;;;5087707;28;19915;-70
2022/03/09 07:20:10;;;;;;;;;;;10.90;89.10;;;;;;5087465;28;20041;-70
2022/03/09 07:22:36;;;;;;;;;;;11.00;89.10;;;;;;5087515;28;19912;-74
2022/03/09 07:25:01;;;;;;;;;;;11.00;89.00;;;;;;5087598;28;19912;-74
2022/03/09 07:27:27;;;;;;;;;;;11.10;88.90;;;;;;5085944;28;19916;-74
2022/03/09 07:29:53;;;;;;;;;;;11.10;88.90;;;;;;5087362;28;19946;-74
2022/03/09 07:32:18;;;;;;;;;;;11.20;88.80;;;;;;5085809;28;19912;-74
2022/03/09 07:34:44;;;;;;;;;;;11.20;88.80;;;;;;5087410;28;19927;-74
2022/03/09 07:37:10;;;;;;;;;;;11.20;88.80;;;;;;5088824;28;19912;-74
2022/03/09 07:39:35;;;;;;;;;;;11.30;88.90;;;;;;5093084;28;19912;-74
2022/03/09 07:42:01;;;;;;;;;;;11.30;88.90;;;;;;5091314;28;19920;-74
2022/03/09 07:44:27;;;;;;;;;;;11.30;88.80;;;;;;5091227;28;20021;-74
2022/03/09 07:46:53;;;;;;;;;;;11.30;88.80;;;;;;5091038;28;19966;-74
2022/03/09 07:49:18;;;;;;;;;;;11.30;88.70;;;;;;5091189;28;19922;-75
2022/03/09 07:51:44;;;;;;;;;;;11.40;88.90;;;;;;5091099;28;19908;-75
2022/03/09 07:54:10;;;;;;;;;;;11.40;88.90;;;;;;5091061;28;19971;-74
2022/03/09 07:56:36;;;;;;;;;;;11.50;88.90;;;;;;5091193;28;19912;-74
2022/03/09 07:59:02;;;;;;;;;;;11.50;88.90;;;;;;5090489;28;19972;-74
2022/03/09 08:01:28;;;;;;;;;;;11.50;88.90;;;;;;5090868;28;19912;-74
2022/03/09 08:03:54;;;;;;;;;;;11.50;88.90;;;;;;5090757;28;19935;-73
2022/03/09 08:06:20;;;;;;;;;;;11.50;88.90;;;;;;5090764;28;19912;-74
2022/03/09 08:08:46;;;;;;;;;;;11.60;89.10;;;;;;5090770;28;19919;-73
2022/03/09 08:11:11;;;;;;;;;;;11.60;89.20;;;;;;5090266;28;20096;-64
2022/03/09 08:13:37;;;;;;;;;;;11.60;89.30;;;;;;5090295;28;19955;-74
2022/03/09 08:16:02;;;;;;;;;;;11.70;89.40;;;;;;5090461;28;19923;-74
2022/03/09 08:18:28;;;;;;;;;;;11.70;89.20;;;;;;5090368;28;20035;-73
2022/03/09 08:20:54;;;;;;;;;;;11.60;89.40;;;;;;5090241;28;19916;-74
2022/03/09 08:23:19;;;;;;;;;;;11.50;89.70;;;;;;5090326;28;19918;-71
2022/03/09 08:25:45;;;;;;;;;;;11.50;90.00;;;;;;5088978;28;20358;-73
2022/03/09 08:28:10;;;;;;;;;;;11.40;90.10;;;;;;5089934;28;20370;-73
2022/03/09 08:30:38;;;;;;;;;;;11.40;90.30;;;;;;5089955;28;19916;-73
2022/03/09 08:33:03;;;;;;;;;;;11.30;90.40;;;;;;5089870;28;19942;-73
2022/03/09 08:35:29;;;;;;;;;;;11.30;90.60;;;;;;5089802;28;19932;-74
2022/03/09 08:37:55;;;;;;;;;;;11.30;90.80;;;;;;5090220;28;19919;-73
2022/03/09 08:40:20;;;;;;;;;;;11.20;90.80;;;;;;5090076;28;20359;-73
2022/03/09 08:42:46;;;;;;;;;;;11.20;90.90;;;;;;5090063;28;19908;-73
2022/03/09 08:45:12;;;;;;;;;;;11.20;91.30;;;;;;5089910;28;20086;-73
2022/03/09 08:47:37;;;;;;;;;;;11.20;91.40;;;;;;5089415;28;19912;-74
2022/03/09 08:50:03;;;;;;;;;;;11.30;91.80;;;;;;5088563;28;19953;-74
2022/03/09 08:52:29;;;;;;;;;;;11.40;91.70;;;;;;5089275;28;19924;-74
2022/03/09 08:54:55;;;;;;;;;;;11.50;91.60;;;;;;5089552;28;19959;-73
2022/03/09 08:57:20;;;;;;;;;;;11.50;91.70;;;;;;5088493;28;19935;-74
2022/03/09 08:59:46;;;;;;;;;;;11.50;91.70;;;;;;5088552;28;20368;-73
2022/03/09 09:02:12;;;;;;;;;;;11.50;91.60;;;;;;5089177;28;19921;-73
2022/03/09 09:04:37;;;;;;;;;;;11.40;91.70;;;;;;5088450;28;19999;-74
2022/03/09 09:07:03;;;;;;;;;;;11.30;91.80;;;;;;5089486;28;20354;-74
2022/03/09 09:09:29;;;;;;;;;;;11.30;91.90;;;;;;5088915;28;20366;-74
2022/03/09 09:11:54;;;;;;;;;;;11.30;92.00;;;;;;5088831;28;19908;-73
2022/03/09 09:14:20;;;;;;;;;;;11.30;92.10;;;;;;5088835;28;19919;-74
2022/03/09 09:16:46;;;;;;;;;;;11.30;92.30;;;;;;5088891;28;19991;-73
2022/03/09 09:19:11;;;;;;;;;;;11.30;92.40;;;;;;5085546;28;19916;-73
2022/03/09 09:21:37;;;;;;;;;;;11.20;92.20;;;;;;5070178;28;19919;-73
2022/03/09 09:24:03;;;;;;;;;;;11.30;92.30;;;;;;5088960;28;19919;-73
2022/03/09 09:26:29;;;;;;;;;;;11.30;92.40;;;;;;5088592;28;19912;-73
2022/03/09 09:28:55;;;;;;;;;;;11.40;92.70;;;;;;5088359;28;19912;-74
2022/03/09 09:31:20;;;;;;;;;;;11.50;92.60;;;;;;5088540;28;20427;-74
2022/03/09 09:33:46;;;;;;;;;;;11.60;92.70;;;;;;5087240;28;19989;-74
2022/03/09 09:36:12;;;;;;;;;;;11.60;92.60;;;;;;5085756;28;19940;-75
2022/03/09 09:38:37;;;;;;;;;;;11.60;92.70;;;;;;5088843;28;20429;-73
2022/03/09 09:41:03;;;;;;;;;;;11.60;92.80;;;;;;5086687;28;19912;-74
2022/03/09 09:43:29;;;;;;;;;;;11.60;92.90;;;;;;5086019;28;20079;-74
2022/03/09 09:45:56;;;;;;;;;;;11.60;92.80;;;;;;5089167;28;20374;-71
2022/03/09 09:48:22;;;;;;;;;;;11.60;92.80;;;;;;5088747;28;20015;-70
2022/03/09 09:50:48;;;;;;;;;;;11.50;92.80;;;;;;5088362;28;19959;-73
2022/03/09 09:53:14;;;;;;;;;;;11.50;93.20;;;;;;5088528;28;19912;-73
2022/03/09 09:55:41;;;;;;;;;;;11.50;93.30;;;;;;5094344;28;19916;-73
2022/03/09 09:58:07;;;;;;;;;;;11.40;93.30;;;;;;5099329;28;19951;-71
2022/03/09 10:00:32;;;;;;;;;;;11.30;93.30;;;;;;5094072;28;19956;-73
2022/03/09 10:02:58;;;;;;;;;;;11.30;93.40;;;;;;5098991;28;20425;-73
2022/03/09 10:05:24;;;;;;;;;;;11.30;93.40;;;;;;5099622;28;19931;-73
2022/03/09 10:08:08;;;;;;;;;;;11.20;93.40;;;;;;5097458;28;19939;-73
2022/03/09 10:10:37;;;;;;;;;;;11.20;93.80;;;;;;5097136;28;19986;-73
2022/03/09 10:13:12;;;;;;;;;;;11.20;94.00;;;;;;5096220;28;19912;-73
2022/03/09 10:15:38;;;;;;;;;;;11.10;94.10;;;;;;5087133;28;20458;-73
2022/03/09 10:18:30;;;;;;;;;;;11.10;94.20;;;;;;5088885;28;20258;-73
2022/03/09 10:21:06;;;;;;;;;;;11.10;94.40;;;;;;5086626;28;19962;-73
2022/03/09 10:23:32;;;;;;;;;;;11.10;94.60;;;;;;5086685;28;19923;-73
2022/03/09 10:26:01;;;;;;;;;;;11.10;94.80;;;;;;5087613;28;19998;-73
2022/03/09 10:28:27;;;;;;;;;;;11.10;94.90;;;;;;5088417;28;19913;-73
2022/03/09 10:30:52;;;;;;;;;;;11.10;95.10;;;;;;5088712;28;19920;-73
2022/03/09 10:33:18;;;;;;;;;;;11.10;95.20;;;;;;5088423;28;20339;-73
2022/03/09 10:35:48;;;;;;;;;;;11.10;95.30;;;;;;5088237;28;20007;-73
2022/03/09 10:38:14;;;;;;;;;;;11.10;95.60;;;;;;5080917;28;19960;-73
2022/03/09 10:40:50;;;;;;;;;;;11.10;95.60;;;;;;5087353;28;20627;-73
2022/03/09 10:43:18;;;;;;;;;;;11.10;95.70;;;;;;5086971;28;19918;-73
2022/03/09 10:46:03;;;;;;;;;;;11.10;95.80;;;;;;5087814;28;19912;-72
2022/03/09 10:48:52;;;;;;;;;;;11.10;95.90;;;;;;5085192;28;19920;-72
2022/03/09 10:51:27;;;;;;;;;;;11.00;96.00;;;;;;5086224;28;20530;-72
2022/03/09 10:53:54;;;;;;;;;;;11.00;96.00;;;;;;5087980;28;19912;-75
2022/03/09 10:56:19;;;;;;;;;;;11.00;96.00;;;;;;5088067;28;19908;-73
2022/03/09 10:58:45;;;;;;;;;;;11.00;96.20;;;;;;5087936;28;19999;-73
2022/03/09 11:01:15;;;;;;;;;;;11.00;96.10;;;;;;5087567;28;19916;-73
2022/03/09 11:03:43;;;;;;;;;;;11.00;96.40;;;;;;5088439;28;19919;-74
2022/03/09 11:06:09;;;;;;;;;;;11.10;96.30;;;;;;5086024;28;19940;-74
2022/03/09 11:08:36;;;;;;;;;;;11.10;96.60;;;;;;5088289;28;19949;-73
2022/03/09 11:11:02;;;;;;;;;;;11.10;96.80;;;;;;5088464;28;19967;-73
2022/03/09 11:13:28;;;;;;;;;;;11.10;96.50;;;;;;5092568;28;20258;-73
2022/03/09 11:15:54;;;;;;;;;;;11.20;96.90;;;;;;5092668;28;19908;-71
2022/03/09 11:18:21;;;;;;;;;;;11.10;97.00;;;;;;5091131;28;19908;-73
2022/03/09 11:20:48;;;;;;;;;;;11.20;97.00;;;;;;5092635;28;20358;-73
2022/03/09 11:23:13;;;;;;;;;;;11.30;96.90;;;;;;5091604;28;19915;-74
2022/03/09 11:25:41;;;;;;;;;;;11.30;96.80;;;;;;5092456;28;20358;-71
2022/03/09 11:28:08;;;;;;;;;;;11.20;96.20;;;;;;5089610;28;20452;-75
2022/03/09 11:30:33;;;;;;;;;;;10.90;95.60;;;;;;5092135;28;19919;-72
2022/03/09 11:32:59;;;;;;;;;;;10.40;95.50;;;;;;5092078;28;19932;-70
2022/03/09 11:35:31;;;;;;;;;;;10.00;95.80;;;;;;5092249;28;20019;-74
2022/03/09 11:37:57;;;;;;;;;;;9.70;96.10;;;;;;5091857;28;19912;-73
2022/03/09 11:40:23;;;;;;;;;;;9.60;96.10;;;;;;5091892;28;19908;-73
2022/03/09 11:42:48;;;;;;;;;;;9.40;96.40;;;;;;5090870;28;19966;-74
2022/03/09 11:45:14;;;;;;;;;;;9.40;96.30;;;;;;5092392;28;19912;-74
2022/03/09 11:47:58;;;;;;;;;;;9.20;96.20;;;;;;5091955;28;19912;-71
2022/03/09 11:50:24;;;;;;;;;;;9.10;96.30;;;;;;5090688;28;19909;-75
2022/03/09 11:52:55;;;;;;;;;;;9.10;96.50;;;;;;5092017;28;19912;-74
2022/03/09 11:55:20;;;;;;;;;;;9.10;96.30;;;;;;5092021;28;19912;-74
2022/03/09 11:57:46;;;;;;;;;;;9.10;96.40;;;;;;5091184;28;19999;-75
2022/03/09 12:00:18;;;;;;;;;;;9.20;96.50;;;;;;5092421;28;20582;-70
2022/03/09 12:02:48;;;;;;;;;;;9.20;96.20;;;;;;5091825;28;19933;-74
2022/03/09 12:05:34;;;;;;;;;;;9.10;96.20;;;;;;5102224;28;19999;-74
2022/03/09 12:08:20;;;;;;;;;;;9.10;96.30;;;;;;5093242;28;19916;-73
2022/03/09 12:10:47;;;;;;;;;;;9.00;96.20;;;;;;5094296;28;19916;-73
2022/03/09 12:13:14;;;;;;;;;;;9.10;96.40;;;;;;5089477;28;19912;-73
2022/03/09 12:16:01;;;;;;;;;;;9.20;96.50;;;;;;5091540;28;19943;-74
2022/03/09 12:18:34;;;;;;;;;;;9.30;96.30;;;;;;5091007;28;19916;-74
2022/03/09 12:20:59;;;;;;;;;;;9.40;96.20;;;;;;5091246;28;19998;-74
2022/03/09 12:23:25;;;;;;;;;;;9.50;96.00;;;;;;5089810;28;19999;-74
2022/03/09 12:25:51;;;;;;;;;;;9.40;95.90;;;;;;5086371;28;19925;-72
2022/03/09 12:28:26;;;;;;;;;;;9.40;95.90;;;;;;5090826;28;20011;-74
2022/03/09 12:30:53;;;;;;;;;;;9.40;96.00;;;;;;5087942;28;19912;-73
2022/03/09 12:33:25;;;;;;;;;;;9.40;96.00;;;;;;5090767;28;19961;-75
2022/03/09 12:35:52;;;;;;;;;;;9.40;95.90;;;;;;5089653;28;19920;-74
2022/03/09 12:38:17;;;;;;;;;;;9.30;96.00;;;;;;5090766;28;20338;-74
2022/03/09 12:40:45;;;;;;;;;;;9.20;95.80;;;;;;5089905;28;20000;-73
2022/03/09 12:43:11;;;;;;;;;;;9.10;95.90;;;;;;5090283;28;20019;-73
2022/03/09 12:45:54;;;;;;;;;;;9.20;96.10;;;;;;5090825;28;19919;-73
2022/03/09 12:48:20;;;;;;;;;;;9.20;95.90;;;;;;5090093;28;19965;-73
2022/03/09 12:50:46;;;;;;;;;;;9.30;95.80;;;;;;5088841;28;19916;-73
2022/03/09 12:53:12;;;;;;;;;;;9.30;95.80;;;;;;5089100;28;19961;-74
2022/03/09 12:55:38;;;;;;;;;;;9.20;95.70;;;;;;5090225;28;19912;-73
2022/03/09 12:58:04;;;;;;;;;;;9.10;95.70;;;;;;5090265;28;20259;-73
2022/03/09 13:00:30;;;;;;;;;;;9.00;95.70;;;;;;5090382;28;19939;-74
2022/03/09 13:03:00;;;;;;;;;;;8.90;95.70;;;;;;5088957;28;19962;-73
2022/03/09 13:05:27;;;;;;;;;;;8.90;95.80;;;;;;5090254;28;19919;-73
2022/03/09 13:07:56;;;;;;;;;;;8.80;95.70;;;;;;5087706;28;19969;-74
2022/03/09 13:10:24;;;;;;;;;;;8.80;95.80;;;;;;5089718;28;19916;-73
2022/03/09 13:13:00;;;;;;;;;;;8.80;95.80;;;;;;5089858;28;19934;-72
2022/03/09 13:15:34;;;;;;;;;;;8.70;95.70;;;;;;5090311;28;19920;-74
2022/03/09 13:18:00;;;;;;;;;;;8.60;95.70;;;;;;5089955;28;19915;-73
2022/03/09 13:20:25;;;;;;;;;;;8.50;95.90;;;;;;5088331;28;20332;-74
2022/03/09 13:22:51;;;;;;;;;;;8.60;96.20;;;;;;5089717;28;19912;-73
2022/03/09 13:25:17;;;;;;;;;;;8.70;96.10;;;;;;5088759;28;19912;-74
2022/03/09 13:27:43;;;;;;;;;;;8.70;95.90;;;;;;5089386;28;20003;-73
2022/03/09 13:30:18;;;;;;;;;;;8.70;95.80;;;;;;5089845;28;19991;-73
2022/03/09 13:32:44;;;;;;;;;;;8.70;95.80;;;;;;5089584;28;19913;-72
2022/03/09 13:35:16;;;;;;;;;;;8.60;95.70;;;;;;5089280;28;19973;-74
2022/03/09 13:37:41;;;;;;;;;;;8.60;95.70;;;;;;5088088;28;19913;-73
2022/03/09 13:40:08;;;;;;;;;;;8.60;95.70;;;;;;5089862;28;19912;-73
2022/03/09 13:42:37;;;;;;;;;;;8.50;95.60;;;;;;5089292;28;20209;-74
2022/03/09 13:45:07;;;;;;;;;;;8.50;95.80;;;;;;5089750;28;19918;-74
2022/03/09 13:47:48;;;;;;;;;;;8.50;95.60;;;;;;5088375;28;20028;-74
2022/03/09 13:50:17;;;;;;;;;;;8.50;95.70;;;;;;5088029;28;19915;-74
2022/03/09 13:52:42;;;;;;;;;;;8.40;95.60;;;;;;5090195;28;20285;-76
2022/03/09 13:55:08;;;;;;;;;;;8.40;95.80;;;;;;5089689;28;19999;-74
2022/03/09 13:57:37;;;;;;;;;;;8.50;95.80;;;;;;5089852;28;19991;-74
2022/03/09 14:00:08;;;;;;;;;;;8.50;95.70;;;;;;5089391;28;20010;-72
2022/03/09 14:02:35;;;;;;;;;;;8.60;95.70;;;;;;5088060;28;19908;-74
2022/03/09 14:05:00;;;;;;;;;;;8.70;95.60;;;;;;5089749;28;20469;-75
2022/03/09 14:07:36;;;;;;;;;;;8.70;95.50;;;;;;5089203;28;19934;-62
2022/03/09 14:10:12;;;;;;;;;;;8.70;95.50;;;;;;5089415;28;19919;-73
2022/03/09 14:12:39;;;;;;;;;;;8.70;95.60;;;;;;5089385;28;19915;-73
2022/03/09 14:15:05;;;;;;;;;;;8.70;95.50;;;;;;5089239;28;20399;-75
2022/03/09 14:17:31;;;;;;;;;;;8.80;95.50;;;;;;5089279;28;19996;-72
2022/03/09 14:19:56;;;;;;;;;;;8.80;95.40;;;;;;5089393;28;19952;-74
2022/03/09 14:22:22;;;;;;;;;;;8.80;95.30;;;;;;5089266;28;19912;-75
2022/03/09 14:24:47;;;;;;;;;;;8.80;95.30;;;;;;5089194;28;19908;-70